createdAt,value
2018-02-09T00:03:06.597Z,4
2018-02-09T00:13:06.616Z,4
2018-02-09T00:23:06.557Z,4
2018-02-09T00:33:06.608Z,4
2018-02-09T00:43:06.556Z,4
2018-02-09T00:53:06.562Z,4
2018-02-09T01:03:07.025Z,4
2018-02-09T01:13:06.581Z,4
2018-02-09T01:23:06.547Z,4
2018-02-09T01:33:06.668Z,4
2018-02-09T01:43:06.588Z,4
2018-02-09T01:53:06.675Z,4
2018-02-09T02:03:06.621Z,4
2018-02-09T02:13:06.691Z,4
2018-02-09T02:23:06.633Z,4
2018-02-09T02:33:06.707Z,4
2018-02-09T02:43:06.711Z,4
2018-02-09T02:53:06.694Z,4
2018-02-09T03:03:06.616Z,4
2018-02-09T03:13:06.727Z,4
2018-02-09T03:23:06.664Z,4
2018-02-09T03:33:06.666Z,4
2018-02-09T03:43:06.733Z,4
2018-02-09T03:53:06.983Z,4
2018-02-09T04:03:06.746Z,4
2018-02-09T04:13:06.764Z,4
2018-02-09T04:23:06.775Z,4
2018-02-09T04:33:06.730Z,4
2018-02-09T04:43:06.801Z,4
2018-02-09T04:53:06.744Z,4
2018-02-09T05:03:06.720Z,4
2018-02-09T05:13:06.775Z,4
2018-02-09T05:23:06.710Z,4
2018-02-09T05:33:06.776Z,4
2018-02-09T05:43:06.755Z,4
2018-02-09T05:53:06.835Z,4
2018-02-09T06:03:06.797Z,8
2018-02-09T06:13:06.877Z,4
2018-02-09T06:23:06.797Z,8
2018-02-09T06:33:06.886Z,12
2018-02-09T06:43:06.825Z,48
2018-02-09T06:53:06.800Z,156
2018-02-09T07:03:06.944Z,380
2018-02-09T07:13:07.111Z,744
2018-02-09T07:23:06.890Z,1148
2018-02-09T07:33:06.864Z,1620
2018-02-09T07:43:06.922Z,2100
2018-02-09T07:53:06.869Z,2328
2018-02-09T08:03:06.992Z,2580
2018-02-09T08:13:06.947Z,2828
2018-02-09T08:23:06.899Z,3768
2018-02-09T08:33:06.961Z,4308
2018-02-09T08:43:06.910Z,4660
2018-02-09T08:53:06.941Z,4608
2018-02-09T09:03:06.890Z,4332
2018-02-09T09:13:06.993Z,4160
2018-02-09T09:23:06.963Z,4024
2018-02-09T09:33:07.027Z,4020
2018-02-09T09:43:06.976Z,3964
2018-02-09T09:53:07.042Z,3892
2018-02-09T10:03:06.954Z,3444
2018-02-09T10:13:06.945Z,3616
2018-02-09T10:23:06.980Z,3648
2018-02-09T10:33:07.067Z,3600
2018-02-09T10:43:06.972Z,3768
2018-02-09T10:53:06.986Z,3752
2018-02-09T11:03:07.043Z,3860
2018-02-09T11:13:06.997Z,3708
2018-02-09T11:23:07.077Z,3800
2018-02-09T11:33:07.071Z,3708
2018-02-09T11:43:07.067Z,3804
2018-02-09T11:53:07.055Z,3820
2018-02-09T12:03:07.053Z,3844
2018-02-09T12:13:07.092Z,3836
2018-02-09T12:23:07.020Z,3816
2018-02-09T12:33:07.240Z,3852
2018-02-09T12:43:07.060Z,3756
2018-02-09T12:53:07.147Z,3924
2018-02-09T13:03:07.178Z,3868
2018-02-09T13:13:07.122Z,3748
2018-02-09T13:23:07.121Z,3584
2018-02-09T13:33:07.166Z,3524
2018-02-09T13:43:07.125Z,3508
2018-02-09T13:53:07.157Z,3432
2018-02-09T14:03:07.182Z,3340
2018-02-09T14:13:07.194Z,3256
2018-02-09T14:23:07.234Z,3124
2018-02-09T14:33:07.214Z,2996
2018-02-09T14:43:07.179Z,2904
2018-02-09T14:53:07.776Z,2756
2018-02-09T15:03:07.159Z,2584
2018-02-09T15:13:17.310Z,2308
2018-02-09T15:23:24.915Z,2064
2018-02-09T15:33:07.275Z,1704
2018-02-09T15:43:07.261Z,1556
2018-02-09T15:53:07.160Z,1080
2018-02-09T16:03:07.268Z,788
2018-02-09T16:13:07.233Z,516
2018-02-09T16:23:07.286Z,304
2018-02-09T16:33:07.272Z,136
2018-02-09T16:43:07.343Z,52
2018-02-09T16:53:09.276Z,12
2018-02-09T17:03:07.347Z,4
2018-02-09T17:13:07.373Z,4
2018-02-09T17:23:07.381Z,4
2018-02-09T17:33:07.319Z,4
2018-02-09T17:43:07.425Z,4
2018-02-09T17:53:07.361Z,4
2018-02-09T18:03:07.264Z,4
2018-02-09T18:13:07.367Z,4
2018-02-09T18:23:07.336Z,4
2018-02-09T18:33:07.356Z,4
2018-02-09T18:43:07.555Z,4
2018-02-09T18:53:07.427Z,4
2018-02-09T19:03:07.403Z,4
2018-02-09T19:13:07.462Z,4
2018-02-09T19:23:07.444Z,4
2018-02-09T19:33:07.454Z,4
2018-02-09T19:43:07.412Z,4
2018-02-09T19:53:07.376Z,4
2018-02-09T20:03:07.853Z,4
2018-02-09T20:13:07.455Z,4
2018-02-09T20:23:07.435Z,4
2018-02-09T20:33:09.079Z,4
2018-02-09T20:43:07.375Z,4
2018-02-09T20:53:07.451Z,4
2018-02-09T21:03:07.442Z,4
2018-02-09T21:13:08.439Z,4
2018-02-09T21:23:29.891Z,4
2018-02-09T21:33:07.513Z,4
2018-02-09T21:43:07.515Z,4
2018-02-09T21:53:07.531Z,0
2018-02-09T22:03:07.828Z,0
2018-02-09T22:13:07.507Z,0
2018-02-09T22:23:07.587Z,4
2018-02-09T22:33:07.535Z,0
2018-02-09T22:43:07.503Z,0
2018-02-09T22:53:07.592Z,4
2018-02-09T23:03:07.570Z,0
2018-02-09T23:13:07.667Z,0
2018-02-09T23:23:07.968Z,0
2018-02-09T23:33:07.640Z,0
2018-02-09T23:43:07.549Z,4
2018-02-09T23:53:07.622Z,4
